Tiempo atmosférico en la estación meteorológica de Abia De Obispalia, Cuenca (1020 m.)



Fecha
DESCASC
Temp. máxima en grados centígrados (hora)
DESCASC
Temp. mínima en grados centígrados (hora)
DESCASC
Temp. media en grados centígrados
DESCASC
Racha de viento máxima en m/sg (hora)
DESCASC
Velocidad máxima media en intervalos de 10 minutos(hora)
DESCASC
Precipitaciones diarias en mm
DESCASC
Precipitaciones de 00:00 a 06:00 en mm
DESCASC
Precipitaciones de 06:00 a 12:00 en mm
DESCASC
Precipitaciones de 12:00 a 18:00 en mm
DESCASC
Precipitaciones de 18:00 a 24:00 en mm
DESCASC
10-10-2019 24.8 (16:50) 13.5 (07:40) 19.1 9.44 (07:50) 6.11 (00:20) 0 0 0 0 0
09-10-2019 28.4 (15:00) 10.5 (08:00) 19.4 7.22 (16:50) 4.44 (23:59) 0 0 0 0 0
08-10-2019 28.5 (16:40) 8.7 (08:40) 18.6 5.28 (11:20) 3.06 (11:30) 0 0 0 0 0
07-10-2019 26.9 (16:50) 12.4 (03:20) 19.6 11.39 (11:40) 6.67 (11:20) 0 0 0 0 0
06-10-2019 26.6 (16:50) 7.8 (00:00) 17.2 6.67 (16:00) 3.89 (16:00) 0 0 0 0 0
05-10-2019 26.6 (15:40) 7 (00:00) 16.8 5.83 (16:10) 2.78 (14:50) 0 0 0 0 0
04-10-2019 26.8 (15:20) 6.3 (00:00) 16.5 5.56 (14:30) 2.78 (18:10) 0 0 0 0 0
03-10-2019 24.8 (16:20) 6.2 (00:00) 15.5 7.22 (17:30) 3.61 (18:20) 0 0 0 0 0
02-10-2019 22.4 (16:50) 6.5 (00:00) 14.4 10.56 (12:50) 5.83 (12:50) 0 0 0 0 0
01-10-2019 25.5 (17:00) 9.1 (00:00) 17.3 8.89 (15:20) 5 (18:50) 0 0 0 0 0
30-09-2019 28.8 (16:00) 8.5 (00:00) 18.6 6.39 (14:40) 3.06 (14:40) 0 0 0 0 0
29-09-2019 28.5 (16:20) 10.4 (00:00) 19.4 6.67 (16:10) 4.44 (00:40) 1.4 0 0 0 1.4
28-09-2019 28.2 (15:40) 8.4 (00:00) 18.3 6.39 (13:10) 4.17 (12:10) 0 0 0 0 0
27-09-2019 27 (16:00) 9.6 (00:00) 18.3 6.67 (16:10) 3.33 (16:50) 0 0 0 0 0
26-09-2019 26.6 (16:40) 8.6 (00:00) 17.6 5.56 (16:20) 2.5 (12:50) 0 0 0 0 0
25-09-2019 23.8 (17:50) 10.1 (00:00) 16.9 7.22 (01:00) 3.61 (01:20) 0 0 0 0 0
24-09-2019 25.4 (16:50) 8.1 (00:00) 16.8 6.67 (17:50) 3.89 (17:50) 0 0 0 0 0
23-09-2019 22.3 (16:20) 6.8 (00:00) 14.5 5.56 (15:20) 2.5 (16:00) 0 0 0 0 0
22-09-2019 20 (14:50) 9.1 (00:00) 14.6 10.83 (14:40) 4.17 (17:20) 2.6 0 0 2.6 0
21-09-2019 20.7 (16:00) 12.6 (00:00) 16.7 8.61 (02:00) 4.72 (00:30) 21.6 21.6 0 0 0
20-09-2019 22 (16:20) 14.7 (00:00) 18.3 12.78 (21:30) 7.5 (19:10) 0 0 0 0 0
19-09-2019 27.3 (14:30) 12 (00:00) 19.6 9.44 (17:40) 5.83 (17:40) 0.4 0 0 0.4 0
18-09-2019 27.3 (16:40) 10.3 (00:00) 18.8 5.83 (16:20) 3.06 (18:10) 0 0 0 0 0
17-09-2019 28.6 (15:00) 12.9 (00:00) 20.8 16.39 (18:50) 7.5 (19:00) 0.2 0 0 0 0.2
16-09-2019 25.9 (16:20) 14.5 (00:00) 20.2 6.67 (00:10) 4.72 (00:10) 0 0 0 0 0
15-09-2019 23.5 (14:30) 12 (00:00) 17.8 16.11 (20:10) 8.06 (15:40) 13.8 0 1.2 0 12.6
14-09-2019 22 (11:50) 14.1 (00:00) 18.1 13.89 (08:40) 8.61 (08:40) 1.4 0 0 1.2 0.2

Gráficas

Temp. máximas Temp. mínimas Temp. medias Precipitaciones Rachas de viento máximas Velocidades máximas media en intervalos de 10 minutos

Datos horarios

Fecha y hora oficial Temperatura (ºC) Velocidad del viento (km/h) Dirección del viento Racha (km/h) Dirección de racha Precipitación (mm) Presión (hPa) Tendencia (hPa) Humedad (%)
2019-10-13 23:00:00 -- -- -- -- -- -- -- -- --
2019-10-13 22:00:00 -- -- -- -- -- -- -- -- --
2019-10-13 21:00:00 -- -- -- -- -- -- -- -- --
2019-10-13 20:00:00 20.3 3 Sudeste 21 Sudoeste 0 -- -- 33
2019-10-13 19:00:00 22.3 10 Sudoeste 24 Sudoeste 0 -- -- 31
2019-10-13 18:00:00 24 12 Sudoeste 32 Sur 0 -- -- 30
2019-10-13 17:00:00 24.9 15 Sudoeste 33 Sudoeste 0 -- -- 29
2019-10-13 16:00:00 25.1 13 Sur 31 Sur 0 -- -- 29
2019-10-13 15:00:00 24.6 17 Sur 31 Sur 0 -- -- 37
2019-10-13 14:00:00 23.2 16 Sur 30 Sur 0 -- -- 50
2019-10-13 13:00:00 21.9 16 Sur 26 Sur 0 -- -- 58
2019-10-13 12:00:00 19.6 14 Sur 24 Sur 0 -- -- 71
2019-10-13 11:00:00 17.5 15 Sur 26 Sudeste 0 -- -- 79
2019-10-13 10:00:00 15 14 Sudeste 29 Sudeste 0 -- -- 92
2019-10-13 09:00:00 13.8 19 Sudeste 30 Sudeste 0 -- -- 95
2019-10-13 08:00:00 13.6 19 Sur 30 Sudeste 0 -- -- 95
2019-10-13 07:00:00 13.8 20 Sudeste 27 Sudeste 0 -- -- 94
2019-10-13 06:00:00 13.8 10 Sudeste 22 Sudeste 0 -- -- 93
2019-10-13 05:00:00 14.1 14 Sudeste 27 Sudeste 0 -- -- 91
2019-10-13 04:00:00 14.8 18 Sudeste 31 Sudeste 0 -- -- 89
2019-10-13 03:00:00 15 10 Sudeste 23 Este 0 -- -- 89
2019-10-13 02:00:00 15.2 11 Sudeste 20 Sudeste 0 -- -- 89
2019-10-13 01:00:00 15.2 11 Sudeste 24 Sudeste 0 -- -- 89
2019-10-13 00:00:00 15.6 3 Este 21 Sudeste 0 -- -- 86
2019-10-12 23:00:00 15.6 15 Sudeste 22 Sudeste 0 -- -- 85
2019-10-12 22:00:00 16.6 13 Sudeste 24 Sudeste 0 -- -- 79
2019-10-12 21:00:00 17.7 14 Sudeste 29 Sudeste 0 -- -- 72
2019-10-12 20:00:00 19 15 Sudeste 25 Sudeste 0 -- -- 62
2019-10-12 19:00:00 21.3 12 Sur 23 Sur 0 -- -- 50
2019-10-12 18:00:00 22.5 12 Sur 25 Sur 0 -- -- 47
2019-10-12 17:00:00 22.7 9 Sur 19 Sur 0 -- -- 45
2019-10-12 16:00:00 23.3 11 Sur 20 Sudeste 0 -- -- 45
2019-10-12 15:00:00 23.6 14 Sur 23 Sudeste 0 -- -- 45
2019-10-12 14:00:00 22.8 14 Sur 24 Sur 0 -- -- 46
2019-10-12 13:00:00 21.3 17 Sudeste 30 Sudeste 0 -- -- 51
2019-10-12 12:00:00 18.8 16 Sudeste 29 Sudeste 0 -- -- 53
2019-10-12 11:00:00 18 16 Sudeste 27 Sudeste 0 -- -- 58
2019-10-12 10:00:00 16.3 10 Sudeste 18 Sudeste 0 -- -- 67
2019-10-12 09:00:00 14.4 6 Sudeste 27 Sudeste 0 -- -- 81
2019-10-12 08:00:00 14.4 19 Sudeste 29 Sudeste 0 -- -- 86
2019-10-12 07:00:00 14.6 14 Sudeste 23 Sudeste 0 -- -- 85
2019-10-12 06:00:00 14.7 13 Sudeste 22 Sudeste 0 -- -- 88
2019-10-12 05:00:00 14.7 7 Sudeste 14 Sudeste 0 -- -- 88
2019-10-12 04:00:00 15.1 5 Sudeste 17 Sudeste 0 -- -- 87
2019-10-12 03:00:00 15.6 9 Sudeste 27 Sudeste 0 -- -- 86
2019-10-12 02:00:00 15.9 18 Sudeste 26 Sudeste 0 -- -- 85
2019-10-12 01:00:00 16.9 10 Sudeste 29 Sudeste 0 -- -- 77
2019-10-12 00:00:00 17.8 20 Sudeste 29 Sudeste 0 -- -- 71
2019-10-11 23:00:00 18.1 20 Sudeste 30 Sur 0 -- -- 61
2019-10-11 22:00:00 18.5 17 Sur 23 Sudeste 0 -- -- 56
2019-10-11 21:00:00 19.1 11 Sur 20 Sur 0 -- -- 49
2019-10-11 20:00:00 20.2 14 Sur 25 Sudeste 0 -- -- 43
2019-10-11 19:00:00 21.8 16 Sur 28 Sur 0 -- -- 42
2019-10-11 18:00:00 23.4 21 Sur 31 Sur 0 -- -- 41
2019-10-11 17:00:00 25.1 16 Sur 28 Sur 0 -- -- 39
2019-10-11 16:00:00 24.5 15 Sur 26 Sur 0 -- -- 43
2019-10-11 15:00:00 25.1 17 Sudeste 36 Sudeste 0 -- -- 41
2019-10-11 14:00:00 24 21 Sur 32 Sur 0 -- -- 44
2019-10-11 13:00:00 22.5 17 Sudeste 28 Sudeste 0 -- -- 52
2019-10-11 12:00:00 20.9 19 Sudeste 29 Sudeste 0 -- -- 61
2019-10-11 11:00:00 18.7 13 Sudeste 24 Este 0 -- -- 71
2019-10-11 10:00:00 15.5 10 Sudeste 24 Sudeste 0 -- -- 86
2019-10-11 09:00:00 14.3 14 Sudeste 27 Sudeste 0 -- -- 91
2019-10-11 08:00:00 14.2 15 Sudeste 26 Sudeste 0 -- -- 93
2019-10-11 07:00:00 14.4 14 Sudeste 24 Sudeste 0 -- -- 93
2019-10-11 06:00:00 14.5 15 Sudeste 25 Sur 0 -- -- 92
2019-10-11 05:00:00 14.6 9 Sudeste 23 Sudeste 0 -- -- 93
2019-10-11 04:00:00 14.4 8 Sudeste 30 Sudeste 0 -- -- 94
2019-10-11 03:00:00 14.1 17 Sudeste 29 Sudeste 0 -- -- 95
2019-10-11 02:00:00 14 16 Sudeste 30 Sudeste 0 -- -- 94
2019-10-11 01:00:00 14.6 10 Sudeste 22 Sudeste 0 -- -- 90
2019-10-11 00:00:00 15.2 13 Sudeste 24 Sudeste 0 -- -- 87
2019-10-10 23:00:00 15.9 15 Sudeste 23 Sudeste 0 -- -- 83
2019-10-10 22:00:00 16.8 15 Sudeste 24 Sudeste 0 -- -- 77
2019-10-10 21:00:00 18 14 Sudeste 22 Sudeste 0 -- -- 70
2019-10-10 20:00:00 19 12 Sur 18 Sur 0 -- -- 63
2019-10-10 19:00:00 21.3 12 Sur 20 Sudeste 0 -- -- 57
2019-10-10 18:00:00 23.3 14 Sur 30 Sudeste 0 -- -- 52
2019-10-10 17:00:00 24.4 15 Sur 24 Sur 0 -- -- 49
2019-10-10 16:00:00 24.7 13 Sur 23 Sur 0 -- -- 47
2019-10-10 15:00:00 24.1 13 Sur 23 Sur 0 -- -- 50
2019-10-10 14:00:00 23.5 13 Sudeste 28 Sudeste 0 -- -- 54
2019-10-10 13:00:00 22.1 15 Sudeste 31 Sudeste 0 -- -- 59
2019-10-10 12:00:00 20.1 16 Sudeste 30 Sur 0 -- -- 67
2019-10-10 11:00:00 17.7 13 Sudeste 26 Sudeste 0 -- -- 80
2019-10-10 10:00:00 15.5 12 Sudeste 25 Sudeste 0 -- -- 89
2019-10-10 09:00:00 14.1 15 Sudeste 31 Sudeste 0 -- -- 92
2019-10-10 08:00:00 13.6 21 Sudeste 34 Sudeste 0 -- -- 92
2019-10-10 07:00:00 13.9 13 Sudeste 26 Sudeste 0 -- -- 91
2019-10-10 06:00:00 14.6 17 Sudeste 33 Sudeste 0 -- -- 92
2019-10-10 05:00:00 15 15 Sudeste 26 Sudeste 0 -- -- 91
2019-10-10 04:00:00 15.3 8 Sudeste 28 Sudeste 0 -- -- 92
2019-10-10 03:00:00 15.3 16 Sudeste 29 Sudeste 0 -- -- 92
2019-10-10 02:00:00 15.9 15 Sudeste 27 Sudeste 0 -- -- 88
2019-10-10 01:00:00 16.7 18 Sudeste 33 Sudeste 0 -- -- 84
2019-10-10 00:00:00 16.4 16 Sudeste 25 Sudeste 0 -- -- 77
2019-10-09 23:00:00 13.6 0 Calma 3 Sur 0 -- -- 74
2019-10-09 22:00:00 14.1 0 Calma -- -- 0 -- -- 70
2019-10-09 21:00:00 15.9 0 Calma 6 Noroeste 0 -- -- 60
2019-10-09 20:00:00 21.3 4 Oeste 15 Oeste 0 -- -- 41
2019-10-09 19:00:00 24.3 8 Noroeste 21 Noroeste 0 -- -- 36
2019-10-09 18:00:00 26.5 12 Noroeste 22 Noroeste 0 -- -- 29
2019-10-09 17:00:00 28.2 9 Noroeste 26 Noroeste 0 -- -- 32
2019-10-09 16:00:00 28.2 10 Noroeste 21 Oeste 0 -- -- 32
2019-10-09 15:00:00 28.4 5 Sudoeste 19 Oeste 0 -- -- 33
2019-10-09 14:00:00 27.8 9 Oeste 17 Oeste 0 -- -- 37
2019-10-09 13:00:00 26.7 5 Sudoeste 12 Oeste 0 -- -- 40
2019-10-09 12:00:00 24.9 5 Sur 10 Sur 0 -- -- 45
2019-10-09 11:00:00 21.2 4 Sudeste 7 Noroeste 0 -- -- 58
2019-10-09 10:00:00 14.9 3 Noroeste 9 Noroeste 0 -- -- 93
2019-10-09 09:00:00 11.8 0 Calma 4 Noroeste 0 -- -- 98
2019-10-09 08:00:00 10.5 0 Calma 4 Norte 0 -- -- 96
2019-10-09 07:00:00 10.7 0 Calma 4 Noroeste 0 -- -- 96
2019-10-09 06:00:00 11 0 Calma 4 Noroeste 0 -- -- 94
2019-10-09 05:00:00 12.2 0 Calma 8 Sur 0 -- -- 95
2019-10-09 04:00:00 11.4 0 Calma 3 Noroeste 0 -- -- 94
2019-10-09 03:00:00 11.5 0 Calma 4 Sudoeste 0 -- -- 92
2019-10-09 02:00:00 11.6 0 Calma 4 Sur 0 -- -- 89
2019-10-09 01:00:00 12.6 0 Calma 3 Este 0 -- -- 77
2019-10-09 00:00:00 14.9 0 Calma 10 Sur 0 -- -- 64
2019-10-08 23:00:00 13.3 0 Calma 2 Sudoeste 0 -- -- 70
2019-10-08 22:00:00 14.4 2 Sudoeste 3 Sudoeste 0 -- -- 66
2019-10-08 21:00:00 17.7 2 Oeste 10 Oeste 0 -- -- 54
2019-10-08 20:00:00 21.6 4 Oeste 10 Noroeste 0 -- -- 42
2019-10-08 19:00:00 24.1 3 Sudoeste 14 Oeste 0 -- -- 39
2019-10-08 18:00:00 26.9 5 Noroeste 17 Oeste 0 -- -- 33
2019-10-08 17:00:00 28.1 9 Noroeste 17 Noroeste 0 -- -- 30
2019-10-08 16:00:00 28.1 6 Sudoeste 14 Noroeste 0 -- -- 32
2019-10-08 15:00:00 27.4 4 Oeste 14 Oeste 0 -- -- 34
2019-10-08 14:00:00 26.4 4 Oeste 15 Sudoeste 0 -- -- 35
2019-10-08 13:00:00 25.1 7 Sudoeste 15 Sudeste 0 -- -- 40
2019-10-08 12:00:00 23.3 11 Sudeste 19 Sudeste 0 -- -- 45
2019-10-08 11:00:00 20.7 8 Sudeste 16 Sudeste 0 -- -- 51
2019-10-08 10:00:00 14.7 2 Este 4 Sudeste 0 -- -- 72
2019-10-08 09:00:00 9.5 0 Calma 3 Sur 0 -- -- 92
2019-10-08 08:00:00 9.3 0 Calma 5 Sur 0 -- -- 85
2019-10-08 07:00:00 10.3 0 Calma 9 Sudeste 0 -- -- 81
2019-10-08 06:00:00 9.6 0 Calma 4 Sur 0 -- -- 83
2019-10-08 05:00:00 10.5 0 Calma 7 Noroeste 0 -- -- 77
2019-10-08 04:00:00 11.6 2 Este 7 Sudeste 0 -- -- 72
2019-10-08 03:00:00 11 0 Calma 4 Sur 0 -- -- 77
2019-10-08 02:00:00 11 0 Calma 6 Sudeste 0 -- -- 75
2019-10-08 01:00:00 12.6 0 Calma 6 Sudoeste 0 -- -- 69
2019-10-08 00:00:00 12.7 3 Sur 6 Sur 0 -- -- 63
2019-10-07 23:00:00 15.3 0 Calma 13 Sudoeste 0 -- -- 53
2019-10-07 22:00:00 17.1 3 Norte 11 Este 0 -- -- 49
2019-10-07 21:00:00 19.3 4 Norte 12 Nordeste 0 -- -- 45
2019-10-07 20:00:00 21.6 7 Norte 24 Norte 0 -- -- 41
2019-10-07 19:00:00 23.8 13 Norte 26 Norte 0 -- -- 38
2019-10-07 18:00:00 25.6 14 Norte 28 Norte 0 -- -- 31
2019-10-07 17:00:00 26.9 13 Norte 28 Norte 0 -- -- 30
2019-10-07 16:00:00 26.1 14 Norte 36 Norte 0 -- -- 29
2019-10-07 15:00:00 25.3 16 Norte 31 Norte 0 -- -- 29
2019-10-07 14:00:00 23.3 14 Norte 36 Norte 0 -- -- 31
2019-10-07 13:00:00 22 19 Norte 40 Noroeste 0 -- -- 32
2019-10-07 12:00:00 20.7 19 Norte 41 Norte 0 -- -- 30
2019-10-07 11:00:00 18.9 19 Norte 37 Norte 0 -- -- 29
2019-10-07 10:00:00 16.7 15 Norte 31 Norte 0 -- -- 32
2019-10-07 09:00:00 14.8 9 Norte 28 Norte 0 -- -- 53
2019-10-07 08:00:00 14.2 15 Norte 31 Norte 0 -- -- 62
2019-10-07 07:00:00 12.6 4 Norte 14 Norte 0 -- -- 67
2019-10-07 06:00:00 13.5 6 Norte 14 Norte 0 -- -- 63
2019-10-07 05:00:00 13.9 6 Norte 16 Norte 0 -- -- 60
2019-10-07 04:00:00 13.1 3 Norte 8 Norte 0 -- -- 64
2019-10-07 03:00:00 13.6 2 Noroeste 9 Norte 0 -- -- 61
2019-10-07 02:00:00 15 3 Norte 15 Nordeste 0 -- -- 56
2019-10-07 01:00:00 13.6 3 Norte 9 Norte 0 -- -- 59
2019-10-07 00:00:00 13.2 3 Noroeste 9 Norte 0 -- -- 58
2019-10-06 23:00:00 11.9 0 Calma 2 Sudoeste 0 -- -- 65
2019-10-06 22:00:00 12.5 2 Sudoeste 3 Sudoeste 0 -- -- 64
2019-10-06 21:00:00 15.3 2 Sudoeste 10 Oeste 0 -- -- 55
2019-10-06 20:00:00 20.3 6 Noroeste 15 Noroeste 0 -- -- 40
2019-10-06 19:00:00 22.5 10 Noroeste 19 Noroeste 0 -- -- 32
2019-10-06 18:00:00 24.8 9 Noroeste 21 Noroeste 0 -- -- 26
2019-10-06 17:00:00 26.6 9 Noroeste 19 Noroeste 0 -- -- 26
2019-10-06 16:00:00 26.1 14 Noroeste 24 Noroeste 0 -- -- 26
2019-10-06 15:00:00 25.7 12 Noroeste 21 Oeste 0 -- -- 27
2019-10-06 14:00:00 25.3 10 Noroeste 20 Noroeste 0 -- -- 29
2019-10-06 13:00:00 24.2 6 Norte 22 Norte 0 -- -- 36
2019-10-06 12:00:00 22.7 6 Norte 14 Norte 0 -- -- 41
2019-10-06 11:00:00 19.6 3 Noroeste 7 Noroeste 0 -- -- 53
2019-10-06 10:00:00 15 0 Calma 4 Sudeste 0 -- -- 72
2019-10-06 09:00:00 9 0 Calma 4 Sur 0 -- -- 93
2019-10-06 08:00:00 7.9 0 Calma 5 Noroeste 0 -- -- 86
2019-10-06 07:00:00 8.4 0 Calma 5 Sudeste 0 -- -- 84
2019-10-06 06:00:00 9.5 3 Sur 5 Sur 0 -- -- 81
2019-10-06 05:00:00 9.5 2 Sur 3 Sur 0 -- -- 81
2019-10-06 04:00:00 9.6 2 Sudoeste 3 Sudoeste 0 -- -- 80
2019-10-06 03:00:00 9.7 0 Calma 3 Oeste 0 -- -- 79
2019-10-06 02:00:00 10.1 2 Sudoeste 3 Sudoeste 0 -- -- 77
2019-10-06 01:00:00 10.1 2 Sur 3 Sur 0 -- -- 76
2019-10-06 00:00:00 10.1 0 Calma 3 Sudoeste 0 -- -- 75
2019-10-05 23:00:00 10.8 2 Sudoeste 3 Sudoeste 0 -- -- 72
2019-10-05 22:00:00 11.8 0 Calma 3 Sudoeste 0 -- -- 67
2019-10-05 21:00:00 15.1 0 Calma 10 Oeste 0 -- -- 53
2019-10-05 20:00:00 20.6 5 Oeste 14 Noroeste 0 -- -- 38
2019-10-05 19:00:00 22.9 9 Oeste 17 Oeste 0 -- -- 34
2019-10-05 18:00:00 25.6 9 Oeste 18 Noroeste 0 -- -- 31
2019-10-05 17:00:00 26.4 8 Noroeste 21 Noroeste 0 -- -- 32
2019-10-05 16:00:00 26.5 7 Oeste 19 Oeste 0 -- -- 34
2019-10-05 15:00:00 25.5 8 Noroeste 21 Noroeste 0 -- -- 37
2019-10-05 14:00:00 25 6 Noroeste 17 Noroeste 0 -- -- 40
2019-10-05 13:00:00 24 6 Sudoeste 15 Sudoeste 0 -- -- 42
2019-10-05 12:00:00 21.7 5 Oeste 12 Oeste 0 -- -- 46
2019-10-05 11:00:00 17.9 3 Norte 8 Norte 0 -- -- 51
2019-10-05 10:00:00 12.8 0 Calma 3 Norte 0 -- -- 69
2019-10-05 09:00:00 8.1 0 Calma 2 Sudoeste 0 -- -- 91
2019-10-05 08:00:00 7.1 0 Calma 2 Sudeste 0 -- -- 86
2019-10-05 07:00:00 7.6 0 Calma 3 Sudeste 0 -- -- 82
2019-10-05 06:00:00 8.1 2 Sudoeste 4 Sudoeste 0 -- -- 79
2019-10-05 05:00:00 9.3 0 Calma 3 Sudoeste 0 -- -- 76
2019-10-05 04:00:00 9.3 0 Calma 3 Norte 0 -- -- 76
2019-10-05 03:00:00 9.9 0 Calma 3 Sudoeste 0 -- -- 72
2019-10-05 02:00:00 10 0 Calma 2 Sudoeste 0 -- -- 71
2019-10-05 01:00:00 10.1 0 Calma 3 Sudoeste 0 -- -- 71
2019-10-05 00:00:00 11 0 Calma 3 Sur 0 -- -- 67
2019-10-04 23:00:00 11.8 0 Calma 4 Sur 0 -- -- 63
2019-10-04 22:00:00 12.5 2 Sur 4 Sur 0 -- -- 60
2019-10-04 21:00:00 15 3 Sur 13 Oeste 0 -- -- 51
2019-10-04 20:00:00 19.5 4 Oeste 14 Noroeste 0 -- -- 38
2019-10-04 19:00:00 23.4 5 Noroeste 20 Oeste 0 -- -- 30
2019-10-04 18:00:00 25.6 10 Noroeste 18 Noroeste 0 -- -- 28
2019-10-04 17:00:00 26 8 Noroeste 18 Noroeste 0 -- -- 27
2019-10-04 16:00:00 25.8 5 Noroeste 17 Noroeste 0 -- -- 26
2019-10-04 15:00:00 26.5 8 Noroeste 20 Sur 0 -- -- 26
2019-10-04 14:00:00 26 4 Noroeste 14 Sudoeste 0 -- -- 27
2019-10-04 13:00:00 24.9 5 Sudoeste 13 Sudoeste 0 -- -- 30
2019-10-04 12:00:00 22 6 Sudoeste 10 Sudoeste 0 -- -- 38
2019-10-04 11:00:00 17.7 4 Noroeste 6 Noroeste 0 -- -- 49
2019-10-04 10:00:00 13.2 0 Calma 4 Sudeste 0 -- -- 59
2019-10-04 09:00:00 7.6 2 Sudeste 4 Este 0 -- -- 91
2019-10-04 08:00:00 6.7 0 Calma 3 Norte 0 -- -- 82
2019-10-04 07:00:00 8.1 2 Sur 5 Sur 0 -- -- 77
2019-10-04 06:00:00 8 2 Sur 4 Sur 0 -- -- 77
2019-10-04 05:00:00 8.3 0 Calma 3 Sur 0 -- -- 75
2019-10-04 04:00:00 8.3 0 Calma 3 Sur 0 -- -- 74
2019-10-04 03:00:00 8.4 2 Sudeste 3 Sur 0 -- -- 74
2019-10-04 02:00:00 8.8 2 Sur 4 Sur 0 -- -- 72
2019-10-04 01:00:00 9.1 0 Calma 4 Sur 0 -- -- 69
2019-10-04 00:00:00 8.8 0 Calma 3 Sudoeste 0 -- -- 69
2019-10-03 23:00:00 9.2 3 Sur 4 Sur 0 -- -- 68
2019-10-03 22:00:00 9.9 0 Calma 4 Oeste 0 -- -- 66
2019-10-03 21:00:00 11.8 0 Calma 3 Noroeste 0 -- -- 58
2019-10-03 20:00:00 18.2 5 Noroeste 20 Noroeste 0 -- -- 41
2019-10-03 19:00:00 20.6 10 Noroeste 23 Noroeste 0 -- -- 33
2019-10-03 18:00:00 23.7 10 Oeste 26 Norte 0 -- -- 28
2019-10-03 17:00:00 24.7 9 Oeste 19 Oeste 0 -- -- 22
2019-10-03 16:00:00 24.7 7 Noroeste 19 Noroeste 0 -- -- 27
2019-10-03 15:00:00 23.1 9 Noroeste 22 Noroeste 0 -- -- 27
2019-10-03 14:00:00 21.8 11 Noroeste 24 Noroeste 0 -- -- 32
2019-10-03 13:00:00 20.2 10 Norte 20 Noroeste 0 -- -- 39
2019-10-03 12:00:00 18.4 13 Norte 24 Norte 0 -- -- 43
2019-10-03 11:00:00 16.6 10 Norte 21 Norte 0 -- -- 49
2019-10-03 10:00:00 12.9 6 Norte 16 Norte 0 -- -- 63
2019-10-03 09:00:00 10 5 Norte 14 Norte 0 -- -- 72
2019-10-03 08:00:00 7.9 0 Calma 9 Noroeste 0 -- -- 77
2019-10-03 07:00:00 8.8 2 Noroeste 8 Noroeste 0 -- -- 76
2019-10-03 06:00:00 7 0 Calma 6 Norte 0 -- -- 84
2019-10-03 05:00:00 6.4 0 Calma 8 Noroeste 0 -- -- 82
2019-10-03 04:00:00 6.3 2 Sudoeste 5 Oeste 0 -- -- 87
2019-10-03 03:00:00 8.1 0 Calma 7 Nordeste 0 -- -- 79
2019-10-03 02:00:00 7 0 Calma 6 Nordeste 0 -- -- 80
2019-10-03 01:00:00 8 2 Este 6 Este 0 -- -- 77
2019-10-03 00:00:00 10.7 4 Norte 10 Norte 0 -- -- 68
2019-10-02 23:00:00 9.8 2 Norte 9 Noroeste 0 -- -- 70
2019-10-02 22:00:00 11.3 4 Oeste 10 Noroeste 0 -- -- 65
2019-10-02 21:00:00 15.3 5 Oeste 14 Norte 0 -- -- 50
2019-10-02 20:00:00 16.6 5 Norte 21 Norte 0 -- -- 46
2019-10-02 19:00:00 18.8 11 Norte 29 Norte 0 -- -- 40
2019-10-02 18:00:00 21 14 Norte 34 Norte 0 -- -- 34
2019-10-02 17:00:00 22.4 15 Norte 32 Norte 0 -- -- 32
2019-10-02 16:00:00 21.9 18 Norte 33 Norte 0 -- -- 32
2019-10-02 15:00:00 21.4 17 Norte 33 Nordeste 0 -- -- 31
2019-10-02 14:00:00 20.6 17 Norte 34 Norte 0 -- -- 31
2019-10-02 13:00:00 18.5 18 Norte 38 Norte 0 -- -- 43
2019-10-02 12:00:00 17.3 12 Norte 28 Norte 0 -- -- 52
2019-10-02 11:00:00 15.3 10 Norte 19 Norte 0 -- -- 56
2019-10-02 10:00:00 12 4 Noroeste 11 Noroeste 0 -- -- 74
2019-10-02 09:00:00 9.2 0 Calma 12 Noroeste 0 -- -- 84
2019-10-02 08:00:00 7.1 0 Calma 6 Noroeste 0 -- -- 88
2019-10-02 07:00:00 7 0 Calma 4 Noroeste 0 -- -- 89
2019-10-02 06:00:00 8.9 0 Calma 6 Noroeste 0 -- -- 85
2019-10-02 05:00:00 9.6 3 Noroeste 11 Noroeste 0 -- -- 83
2019-10-02 04:00:00 9.8 3 Noroeste 8 Noroeste 0 -- -- 81
2019-10-02 03:00:00 9.3 0 Calma 3 Sur 0 -- -- 82
2019-10-02 02:00:00 13.4 3 Noroeste 13 Noroeste 0 -- -- 67
2019-10-02 01:00:00 15 9 Oeste 15 Noroeste 0 -- -- 63
2019-10-02 00:00:00 14.2 6 Noroeste 11 Noroeste 0 -- -- 67
2019-10-01 23:00:00 15.6 4 Noroeste 14 Noroeste 0 -- -- 61
2019-10-01 22:00:00 17.5 3 Noroeste 24 Noroeste 0 -- -- 53
2019-10-01 21:00:00 19 10 Noroeste 21 Noroeste 0 -- -- 45
2019-10-01 20:00:00 20.7 13 Noroeste 26 Noroeste 0 -- -- 35
2019-10-01 19:00:00 22.5 13 Noroeste 29 Noroeste 0 -- -- 31
2019-10-01 18:00:00 24.8 14 Noroeste 32 Noroeste 0 -- -- 33
2019-10-01 17:00:00 25.5 14 Oeste 29 Noroeste 0 -- -- 24
2019-10-01 16:00:00 25.2 14 Noroeste 32 Noroeste 0 -- -- 28
2019-10-01 15:00:00 24.9 12 Noroeste 27 Noroeste 0 -- -- 30
2019-10-01 14:00:00 24.9 16 Noroeste 28 Noroeste 0 -- -- 31
2019-10-01 13:00:00 24.6 13 Noroeste 27 Noroeste 0 -- -- 32
2019-10-01 12:00:00 22.7 6 Oeste 13 Oeste 0 -- -- 39
2019-10-01 11:00:00 18.8 2 Norte 5 Nordeste 0 -- -- 50
2019-10-01 10:00:00 13.9 0 Calma 4 Norte 0 -- -- 71
2019-10-01 09:00:00 12.2 0 Calma 5 Sur 0 -- -- 75
2019-10-01 08:00:00 9.5 0 Calma 3 Sur 0 -- -- 78
2019-10-01 07:00:00 9.2 2 Oeste 3 Sudeste 0 -- -- 80
2019-10-01 06:00:00 9.3 0 Calma 4 Sur 0 -- -- 85
2019-10-01 05:00:00 9.7 0 Calma 4 Noroeste 0 -- -- 81
2019-10-01 04:00:00 10.4 0 Calma 4 Sudoeste 0 -- -- 74
2019-10-01 03:00:00 12.5 0 Calma 15 Sur 0 -- -- 64
2019-10-01 02:00:00 15.8 11 Sur 14 Sur 0 -- -- 45
2019-10-01 01:00:00 14.4 8 Sur 9 Sur 0 -- -- 49
2019-10-01 00:00:00 12.9 5 Sur 7 Sur 0 -- -- 57
2019-09-30 23:00:00 13 0 Calma 5 Sudoeste 0 -- -- 57
2019-09-30 22:00:00 13.4 0 Calma 4 Sudoeste 0 -- -- 56
2019-09-30 21:00:00 15.5 3 Sudoeste 7 Oeste 0 -- -- 51
2019-09-30 20:00:00 21.1 3 Sur 14 Oeste 0 -- -- 37
2019-09-30 19:00:00 25 6 Oeste 14 Oeste 0 -- -- 27
2019-09-30 18:00:00 27.9 6 Sudoeste 18 Oeste 0 -- -- 25
2019-09-30 17:00:00 28.2 9 Sudoeste 22 Sudoeste 0 -- -- 24
2019-09-30 16:00:00 28.8 6 Sudoeste 23 Noroeste 0 -- -- 23
2019-09-30 15:00:00 28.3 8 Sudoeste 23 Oeste 0 -- -- 24
2019-09-30 14:00:00 27.8 9 Noroeste 23 Noroeste 0 -- -- 24
2019-09-30 13:00:00 26.8 8 Sur 17 Sur 0 -- -- 27
2019-09-30 12:00:00 25.6 6 Sudoeste 12 Sudoeste 0 -- -- 27
2019-09-30 11:00:00 21.2 2 Noroeste 5 Noroeste 0 -- -- 39
2019-09-30 10:00:00 16.1 0 Calma 3 Noroeste 0 -- -- 42
2019-09-30 09:00:00 10.5 0 Calma 3 Sudeste 0 -- -- 68
2019-09-30 08:00:00 8.7 3 Sudeste 4 Sudeste 0 -- -- 68
2019-09-30 07:00:00 9.6 0 Calma 3 Sudoeste 0 -- -- 63
2019-09-30 06:00:00 9.4 0 Calma 3 Sur 0 -- -- 64
2019-09-30 05:00:00 8.9 2 Sur 4 Sudeste 0 -- -- 67
2019-09-30 04:00:00 10.7 0 Calma 4 Noroeste 0 -- -- 59
2019-09-30 03:00:00 11.1 0 Calma -- -- 0 -- -- 63
2019-09-30 02:00:00 11 2 Sur 3 Sudeste 0 -- -- 65
2019-09-30 01:00:00 11.3 0 Calma -- -- 0 -- -- 65
2019-09-30 00:00:00 11.5 2 Sudoeste 3 Sudoeste 0 -- -- 66
2019-09-29 23:00:00 12.3 2 Sudoeste 3 Sudoeste 0 -- -- 64
2019-09-29 22:00:00 13 2 Sur 3 Sur 0 -- -- 60
2019-09-29 21:00:00 15.1 0 Calma 4 Oeste 1.4 -- -- 51
2019-09-29 20:00:00 20.5 3 Oeste 14 Noroeste 0 -- -- 37
2019-09-29 19:00:00 24.8 9 Noroeste 22 Noroeste 0 -- -- 26
2019-09-29 18:00:00 27.7 9 Noroeste 21 Oeste 0 -- -- 24
2019-09-29 17:00:00 28.2 11 Oeste 24 Oeste 0 -- -- 24
2019-09-29 16:00:00 28.2 11 Oeste 23 Oeste 0 -- -- 26
2019-09-29 15:00:00 28.1 9 Noroeste 21 Noroeste 0 -- -- 29
2019-09-29 14:00:00 27.3 6 Oeste 17 Sudoeste 0 -- -- 32
2019-09-29 13:00:00 26.1 6 Oeste 14 Noroeste 0 -- -- 40
2019-09-29 12:00:00 24.2 4 Sudoeste 11 Sudoeste 0 -- -- 50
2019-09-29 11:00:00 20.1 3 Sudoeste 7 Noroeste 0 -- -- 72
2019-09-29 10:00:00 15.5 2 Noroeste 3 Norte 0 -- -- 99
2019-09-29 09:00:00 12.4 0 Calma 4 Noroeste 0 -- -- 99
2019-09-29 08:00:00 10.5 0 Calma 3 Sur 0 -- -- 96
2019-09-29 07:00:00 11.4 0 Calma 4 Noroeste 0 -- -- 96
2019-09-29 06:00:00 11.7 0 Calma 3 Sudeste 0 -- -- 95
2019-09-29 05:00:00 12.3 0 Calma 4 Noroeste 0 -- -- 92
2019-09-29 04:00:00 14.3 3 Noroeste 6 Oeste 0 -- -- 87
2019-09-29 03:00:00 14.8 2 Noroeste 16 Sudeste 0 -- -- 82
2019-09-29 02:00:00 16.5 8 Sudeste 22 Sur 0 -- -- 77
2019-09-29 01:00:00 16.9 15 Sur 23 Sur 0 -- -- 82
2019-09-29 00:00:00 17.3 14 Sur 22 Sudeste 0 -- -- 78
2019-09-28 23:00:00 12.6 2 Sur 3 Sudoeste 0 -- -- 57
2019-09-28 22:00:00 13.1 0 Calma 4 Sudoeste 0 -- -- 56
2019-09-28 21:00:00 15.9 3 Sudoeste 7 Oeste 0 -- -- 48
2019-09-28 20:00:00 19.8 2 Sudoeste 16 Oeste 0 -- -- 42
2019-09-28 19:00:00 24.3 6 Oeste 19 Oeste 0 -- -- 29
2019-09-28 18:00:00 27.2 9 Oeste 20 Oeste 0 -- -- 23
2019-09-28 17:00:00 27.8 8 Oeste 19 Sudoeste 0 -- -- 23
2019-09-28 16:00:00 27.7 10 Sudoeste 19 Sur 0 -- -- 26
2019-09-28 15:00:00 27.4 8 Sudoeste 21 Sudoeste 0 -- -- 27
2019-09-28 14:00:00 26.6 8 Sudoeste 23 Sur 0 -- -- 29
2019-09-28 13:00:00 25.1 9 Sur 21 Sur 0 -- -- 34
2019-09-28 12:00:00 23.7 14 Sur 20 Sur 0 -- -- 38
2019-09-28 11:00:00 21.9 8 Sur 15 Sur 0 -- -- 42
2019-09-28 10:00:00 15 2 Norte 4 Norte 0 -- -- 63
2019-09-28 09:00:00 9.9 2 Noroeste 3 Sudoeste 0 -- -- 85
2019-09-28 08:00:00 8.4 0 Calma 3 Sudeste 0 -- -- 84
2019-09-28 07:00:00 8.9 0 Calma 3 Sur 0 -- -- 82
2019-09-28 06:00:00 9 0 Calma 4 Sudoeste 0 -- -- 83
2019-09-28 05:00:00 9.5 3 Sudeste 4 Sudeste 0 -- -- 80
2019-09-28 04:00:00 10.4 0 Calma 5 Sur 0 -- -- 78
2019-09-28 03:00:00 10.7 2 Sur 4 Sur 0 -- -- 76
2019-09-28 02:00:00 10.5 0 Calma 3 Oeste 0 -- -- 77
2019-09-28 01:00:00 11.6 0 Calma 2 Sudoeste 0 -- -- 73
2019-09-28 00:00:00 11.9 0 Calma 4 Sur 0 -- -- 72
2019-09-27 23:00:00 12.2 0 Calma 4 Sudeste 0 -- -- 71
2019-09-27 22:00:00 13.3 2 Sudoeste 3 Sudoeste 0 -- -- 64
2019-09-27 21:00:00 16 0 Calma 7 Noroeste 0 -- -- 56
2019-09-27 20:00:00 21.6 4 Oeste 15 Oeste 0 -- -- 37
2019-09-27 19:00:00 23.8 8 Noroeste 18 Noroeste 0 -- -- 34
2019-09-27 18:00:00 26.6 9 Noroeste 23 Noroeste 0 -- -- 32
2019-09-27 17:00:00 26.8 10 Noroeste 24 Oeste 0 -- -- 31
2019-09-27 16:00:00 27 8 Noroeste 24 Noroeste 0 -- -- 32
2019-09-27 15:00:00 26.8 7 Oeste 21 Oeste 0 -- -- 35
2019-09-27 14:00:00 25.7 8 Noroeste 18 Noroeste 0 -- -- 35
2019-09-27 13:00:00 25.1 6 Oeste 17 Oeste 0 -- -- 43
2019-09-27 12:00:00 23.6 6 Sudoeste 13 Sudoeste 0 -- -- 44
2019-09-27 11:00:00 20.7 3 Norte 7 Noroeste 0 -- -- 54
2019-09-27 10:00:00 16.4 0 Calma 4 Noroeste 0 -- -- 67
2019-09-27 09:00:00 11.5 0 Calma 2 Sudeste 0 -- -- 94
2019-09-27 08:00:00 9.7 0 Calma 2 Sudeste 0 -- -- 90
2019-09-27 07:00:00 9.8 0 Calma 3 Noroeste 0 -- -- 90
2019-09-27 06:00:00 10 0 Calma 3 Sur 0 -- -- 90
2019-09-27 05:00:00 10.6 0 Calma 4 Sudeste 0 -- -- 87
2019-09-27 04:00:00 12 0 Calma 8 Sudoeste 0 -- -- 81
2019-09-27 03:00:00 12 0 Calma 3 Sudoeste 0 -- -- 83
2019-09-27 02:00:00 12 2 Sudoeste 3 Sudoeste 0 -- -- 83
2019-09-27 01:00:00 12.3 0 Calma 3 Sudoeste 0 -- -- 81
2019-09-27 00:00:00 12.7 0 Calma 3 Sudoeste 0 -- -- 79
2019-09-26 23:00:00 13.3 0 Calma 3 Sudoeste 0 -- -- 77
2019-09-26 22:00:00 14.6 2 Sur 6 Sudoeste 0 -- -- 71
2019-09-26 21:00:00 17.2 4 Sudoeste 7 Sudoeste 0 -- -- 59
2019-09-26 20:00:00 21 4 Sudoeste 12 Oeste 0 -- -- 45
2019-09-26 19:00:00 23.5 3 Noroeste 13 Oeste 0 -- -- 40
2019-09-26 18:00:00 26.3 6 Oeste 18 Noroeste 0 -- -- 34
2019-09-26 17:00:00 26.6 3 Noroeste 20 Sudoeste 0 -- -- 35
2019-09-26 16:00:00 26.4 4 Sudoeste 15 Sudoeste 0 -- -- 34
2019-09-26 15:00:00 25.3 6 Este 14 Sudoeste 0 -- -- 35
2019-09-26 14:00:00 24.5 7 Sur 16 Sur 0 -- -- 35
2019-09-26 13:00:00 23.3 6 Sudoeste 16 Sur 0 -- -- 41
2019-09-26 12:00:00 22.1 6 Sur 12 Sudoeste 0 -- -- 45
2019-09-26 11:00:00 19.6 6 Sur 12 Sur 0 -- -- 52
2019-09-26 10:00:00 14.1 2 Norte 5 Noroeste 0 -- -- 78
2019-09-26 09:00:00 10.1 2 Noroeste 4 Noroeste 0 -- -- 87
2019-09-26 08:00:00 8.7 0 Calma 2 Sudeste 0 -- -- 91
2019-09-26 07:00:00 8.9 0 Calma 3 Oeste 0 -- -- 91
2019-09-26 06:00:00 9.1 0 Calma 4 Sur 0 -- -- 90
2019-09-26 05:00:00 9.1 0 Calma 3 Noroeste 0 -- -- 89
2019-09-26 04:00:00 9.8 0 Calma 3 Noroeste 0 -- -- 86
2019-09-26 03:00:00 10.3 0 Calma 3 Sur 0 -- -- 85
2019-09-26 02:00:00 10.5 2 Sur 3 Sur 0 -- -- 86
2019-09-26 01:00:00 10.8 2 Sur 3 Sur 0 -- -- 87
2019-09-26 00:00:00 11.1 0 Calma 2 Sudoeste 0 -- -- 87
2019-09-25 23:00:00 11.9 0 Calma 3 Sudoeste 0 -- -- 84
2019-09-25 22:00:00 13.8 0 Calma 6 Noroeste 0 -- -- 75
2019-09-25 21:00:00 15.8 0 Calma 12 Noroeste 0 -- -- 66
2019-09-25 20:00:00 19.1 7 Noroeste 17 Noroeste 0 -- -- 53
2019-09-25 19:00:00 20.9 8 Noroeste 18 Noroeste 0 -- -- 49
2019-09-25 18:00:00 23.7 8 Noroeste 18 Oeste 0 -- -- 43
2019-09-25 17:00:00 23.6 7 Oeste 19 Noroeste 0 -- -- 43
2019-09-25 16:00:00 22.9 10 Noroeste 23 Noroeste 0 -- -- 43
2019-09-25 15:00:00 22.4 11 Noroeste 23 Noroeste 0 -- -- 47
2019-09-25 14:00:00 22.2 6 Noroeste 18 Noroeste 0 -- -- 49
2019-09-25 13:00:00 20.8 8 Noroeste 18 Noroeste 0 -- -- 52
2019-09-25 12:00:00 20 4 Norte 13 Oeste 0 -- -- 59
2019-09-25 11:00:00 16.6 6 Noroeste 14 Noroeste 0 -- -- 74
2019-09-25 10:00:00 13.6 3 Oeste 7 Noroeste 0 -- -- 97
2019-09-25 09:00:00 11.5 2 Noroeste 4 Norte 0 -- -- 98
2019-09-25 08:00:00 10.4 0 Calma 3 Sur 0 -- -- 95
2019-09-25 07:00:00 12.7 4 Noroeste 9 Oeste 0 -- -- 95
2019-09-25 06:00:00 13.3 5 Oeste 8 Sudoeste 0 -- -- 96
2019-09-25 05:00:00 13.9 0 Calma 11 Noroeste 0 -- -- 94
2019-09-25 04:00:00 15.2 6 Noroeste 19 Noroeste 0 -- -- 94
2019-09-25 03:00:00 15.5 6 Noroeste 22 Oeste 0 -- -- 91
2019-09-25 02:00:00 16.2 11 Oeste 25 Oeste 0 -- -- 88
2019-09-25 01:00:00 16.7 12 Oeste 26 Oeste 0 -- -- 84
2019-09-25 00:00:00 17.5 11 Noroeste 24 Noroeste 0 -- -- 80
2019-09-24 23:00:00 18.4 10 Noroeste 21 Oeste 0 -- -- 73
2019-09-24 22:00:00 18.1 6 Noroeste 12 Oeste 0 -- -- 60
2019-09-24 21:00:00 18.6 3 Oeste 18 Oeste 0 -- -- 55
2019-09-24 20:00:00 21.2 6 Oeste 21 Oeste 0 -- -- 46
2019-09-24 19:00:00 22.6 12 Oeste 23 Oeste 0 -- -- 41
2019-09-24 18:00:00 24.8 12 Oeste 24 Oeste 0 -- -- 34
2019-09-24 17:00:00 25 12 Oeste 21 Noroeste 0 -- -- 35
2019-09-24 16:00:00 24.7 9 Oeste 21 Oeste 0 -- -- 39
2019-09-24 15:00:00 23.9 11 Noroeste 23 Noroeste 0 -- -- 39
2019-09-24 14:00:00 23.1 9 Oeste 20 Oeste 0 -- -- 41
2019-09-24 13:00:00 21.5 9 Oeste 21 Oeste 0 -- -- 44
2019-09-24 12:00:00 20.2 9 Oeste 18 Oeste 0 -- -- 47
2019-09-24 11:00:00 17.9 7 Noroeste 12 Oeste 0 -- -- 54
2019-09-24 10:00:00 14.3 2 Norte 4 Norte 0 -- -- 73
2019-09-24 09:00:00 10.4 0 Calma 2 Sudoeste 0 -- -- 98
2019-09-24 08:00:00 8.2 2 Sudoeste 2 Sudoeste 0 -- -- 95
2019-09-24 07:00:00 8.2 0 Calma 3 Sudoeste 0 -- -- 93
2019-09-24 06:00:00 8.7 0 Calma 3 Sudoeste 0 -- -- 93
2019-09-24 05:00:00 8.9 0 Calma 2 Sudoeste 0 -- -- 93
2019-09-24 04:00:00 9.2 0 Calma 3 Sudoeste 0 -- -- 92
2019-09-24 03:00:00 9.8 0 Calma 3 Sur 0 -- -- 91
2019-09-24 02:00:00 10.1 0 Calma 3 Sudoeste 0 -- -- 90
2019-09-24 01:00:00 10.7 0 Calma 3 Sudoeste 0 -- -- 90
2019-09-24 00:00:00 11.1 0 Calma 4 Sur 0 -- -- 88
2019-09-23 23:00:00 12.1 2 Sudeste 5 Sur 0 -- -- 84
2019-09-23 22:00:00 13.1 0 Calma 3 Sudoeste 0 -- -- 81
2019-09-23 21:00:00 15.9 2 Sudoeste 10 Oeste 0 -- -- 63
2019-09-23 20:00:00 18.3 5 Oeste 13 Oeste 0 -- -- 53
2019-09-23 19:00:00 20.1 6 Oeste 17 Noroeste 0 -- -- 47
2019-09-23 18:00:00 21.5 7 Oeste 14 Oeste 0 -- -- 44
2019-09-23 17:00:00 21.7 8 Oeste 17 Noroeste 0 -- -- 47
2019-09-23 16:00:00 22.1 9 Oeste 20 Oeste 0 -- -- 45
2019-09-23 15:00:00 21.6 7 Oeste 14 Sur 0 -- -- 46
2019-09-23 14:00:00 21.3 4 Sudoeste 16 Sur 0 -- -- 49
2019-09-23 13:00:00 20.5 5 Noroeste 15 Sur 0 -- -- 48
2019-09-23 12:00:00 18.7 4 Sur 13 Oeste 0 -- -- 58
2019-09-23 11:00:00 15.1 2 Norte 5 Noroeste 0 -- -- 78
2019-09-23 10:00:00 11.2 2 Norte 5 Nordeste 0 -- -- 99
2019-09-23 09:00:00 8.3 0 Calma 3 Norte 0 -- -- 99
2019-09-23 08:00:00 6.9 0 Calma 3 Sur 0 -- -- 98
2019-09-23 07:00:00 7.2 2 Sur -- -- 0 -- -- 98
2019-09-23 06:00:00 7.2 3 Sudeste 4 Sudeste 0 -- -- 98
2019-09-23 05:00:00 7.4 0 Calma 2 Sudoeste 0 -- -- 97
2019-09-23 04:00:00 7.8 0 Calma 4 Sur 0 -- -- 96
2019-09-23 03:00:00 8 0 Calma 3 Sudoeste 0 -- -- 95
2019-09-23 02:00:00 8.5 2 Sudeste 4 Sudoeste 0 -- -- 93
2019-09-23 01:00:00 8.9 3 Sudoeste 7 Oeste 0 -- -- 92
2019-09-23 00:00:00 9.1 0 Calma 3 Sudoeste 0 -- -- 89
2019-09-22 23:00:00 9.8 0 Calma 5 Oeste 0 -- -- 85
2019-09-22 22:00:00 10.9 2 Sudoeste 8 Noroeste 0 -- -- 78
2019-09-22 21:00:00 12.5 4 Oeste 12 Oeste 0 -- -- 71
2019-09-22 20:00:00 16.3 8 Noroeste 22 Noroeste 0 -- -- 57
2019-09-22 19:00:00 17.8 12 Noroeste 30 Noroeste 0 -- -- 53
2019-09-22 18:00:00 19.9 13 Noroeste 28 Noroeste 0 -- -- 53
2019-09-22 17:00:00 18.9 12 Oeste 31 Oeste 0 -- -- 71
2019-09-22 16:00:00 16.7 9 Oeste 21 Oeste 2.6 -- -- 92
2019-09-22 15:00:00 19.6 10 Sudoeste 39 Sudoeste 0 -- -- 73
2019-09-22 14:00:00 18.8 9 Oeste 25 Sur 0 -- -- 77
2019-09-22 13:00:00 18.5 10 Oeste 25 Oeste 0 -- -- 78
2019-09-22 12:00:00 16.7 8 Sudoeste 19 Sur 0 -- -- 90
2019-09-22 11:00:00 16 6 Sudoeste 16 Sudoeste 0 -- -- 92
2019-09-22 10:00:00 14.7 6 Sudoeste 17 Sudoeste 0 -- -- 94
2019-09-22 09:00:00 14.5 8 Sudoeste 18 Sudoeste 0 -- -- 93
2019-09-22 08:00:00 14.1 8 Sur 17 Sur 0 -- -- 93
2019-09-22 07:00:00 14.4 10 Sur 22 Sudoeste 0 -- -- 91
2019-09-22 06:00:00 13.9 5 Sur 12 Sudoeste 0 -- -- 93
2019-09-22 05:00:00 14.1 3 Sur 9 Sur 0 -- -- 90
2019-09-22 04:00:00 14.3 2 Norte 15 Sudoeste 0 -- -- 92
2019-09-22 03:00:00 14.6 7 Sudoeste 17 Sur 0 -- -- 92
2019-09-22 02:00:00 15 9 Sur 19 Sudoeste 0 -- -- 88
2019-09-22 01:00:00 15.6 9 Sudoeste 21 Sur 0 -- -- 89
2019-09-22 00:00:00 16.1 10 Sudoeste 22 Sudoeste 0 -- -- 87
2019-09-21 23:00:00 16.8 8 Sudoeste 19 Sur 0 -- -- 86
2019-09-21 22:00:00 17 8 Sur 13 Sur 0 -- -- 86
2019-09-21 21:00:00 17.5 9 Sur 14 Sur 0 -- -- 84
2019-09-21 20:00:00 17.8 6 Sur 17 Sur 0 -- -- 80
2019-09-21 19:00:00 18.6 6 Sudoeste 18 Sur 0 -- -- 74
2019-09-21 18:00:00 18.9 5 Sudoeste 21 Sudoeste 0 -- -- 73
2019-09-21 17:00:00 19.7 12 Sudoeste 25 Oeste 0 -- -- 68
2019-09-21 16:00:00 20.7 9 Sudoeste 21 Sudoeste 0 -- -- 62
2019-09-21 15:00:00 19.9 12 Sudoeste 25 Sudoeste 0 -- -- 67
2019-09-21 14:00:00 19.1 10 Sudoeste 23 Oeste 0 -- -- 70
2019-09-21 13:00:00 18.9 6 Sudoeste 19 Sur 0 -- -- 75
2019-09-21 12:00:00 18 9 Sur 15 Sur 0 -- -- 81
2019-09-21 11:00:00 16.5 7 Sur 13 Sudeste 0 -- -- 87
2019-09-21 10:00:00 15.2 5 Sudeste 11 Sudeste 0 -- -- 97
2019-09-21 09:00:00 13.2 0 Calma 6 Sudeste 0 -- -- 97
2019-09-21 08:00:00 12.8 5 Sudeste 12 Sudeste 0 -- -- 96
2019-09-21 07:00:00 12.9 0 Calma 18 Sudeste 0 -- -- 95
2019-09-21 06:00:00 13.6 14 Sudeste 24 Sudeste 1 -- -- 96
2019-09-21 05:00:00 13.3 8 Sur 21 Sudeste 0 -- -- 94
2019-09-21 04:00:00 13.3 13 Sudeste 26 Sudeste 6.4 -- -- 96
2019-09-21 03:00:00 14 9 Sudeste 24 Sudeste 9.8 -- -- 95
2019-09-21 02:00:00 13.9 16 Sudeste 31 Sudeste 2.8 -- -- 93
2019-09-21 01:00:00 14.2 9 Sudeste 26 Sur 1.6 -- -- 89
2019-09-21 00:00:00 16.1 14 Sudeste 30 Sudeste 0 -- -- 70
2019-09-20 23:00:00 16.7 10 Sudeste 39 Sudeste 0 -- -- 79
2019-09-20 22:00:00 17.4 20 Sudeste 46 Sudeste 0 -- -- 83
2019-09-20 21:00:00 18.1 20 Sudeste 38 Sudeste 0 -- -- 77
2019-09-20 20:00:00 19 24 Sudeste 40 Sur 0 -- -- 73
2019-09-20 19:00:00 21.2 18 Sudeste 35 Sudeste 0 -- -- 63
2019-09-20 18:00:00 21.1 19 Sudeste 32 Sur 0 -- -- 63
2019-09-20 17:00:00 21.5 21 Sudeste 39 Sudeste 0 -- -- 59
2019-09-20 16:00:00 21.5 22 Sudeste 37 Sudeste 0 -- -- 58
2019-09-20 15:00:00 21.9 18 Sudeste 36 Sur 0 -- -- 59
2019-09-20 14:00:00 21.7 19 Sudeste 36 Sudeste 0 -- -- 58
2019-09-20 13:00:00 20.6 22 Sudeste 31 Sudeste 0 -- -- 63
2019-09-20 12:00:00 20.6 18 Sudeste 35 Sudeste 0 -- -- 63
2019-09-20 11:00:00 18.9 15 Sudeste 37 Este 0 -- -- 71
2019-09-20 10:00:00 16.1 18 Sudeste 35 Sudeste 0 -- -- 83
2019-09-20 09:00:00 14.9 18 Sudeste 34 Sudeste 0 -- -- 90
2019-09-20 08:00:00 14.7 20 Sudeste 32 Sudeste 0 -- -- 89
2019-09-20 07:00:00 15 18 Sudeste 27 Sudeste 0 -- -- 88
2019-09-20 06:00:00 15.2 17 Sudeste 24 Sudeste 0 -- -- 84
2019-09-20 05:00:00 15.2 16 Sudeste 29 Sudeste 0 -- -- 81
2019-09-20 04:00:00 15.3 21 Sudeste 29 Sudeste 0 -- -- 80
2019-09-20 03:00:00 15.4 17 Sudeste 27 Sudeste 0 -- -- 83
2019-09-20 02:00:00 15.8 17 Sudeste 26 Sudeste 0 -- -- 83
2019-09-20 01:00:00 16.1 19 Sudeste 28 Sudeste 0 -- -- 80
2019-09-20 00:00:00 16.3 13 Sudeste 22 Sudeste 0 -- -- 71
2019-09-19 23:00:00 16.1 11 Sudeste 17 Sudeste 0 -- -- 71
2019-09-19 22:00:00 16.1 11 Sur 22 Sudeste 0 -- -- 76
2019-09-19 21:00:00 17.6 9 Sudeste 14 Sur 0 -- -- 65
2019-09-19 20:00:00 19 8 Sudeste 16 Sudeste 0 -- -- 66
2019-09-19 19:00:00 20.8 11 Sudeste 26 Sur 0 -- -- 64
2019-09-19 18:00:00 21.8 19 Sur 34 Sur 0 -- -- 46
2019-09-19 17:00:00 23.3 18 Sur 27 Sur 0.4 -- -- 49
2019-09-19 16:00:00 24.2 5 Oeste 15 Oeste 0 -- -- 45
2019-09-19 15:00:00 25.4 7 Oeste 24 Sudoeste 0 -- -- 44
2019-09-19 14:00:00 26.9 10 Sudoeste 22 Sur 0 -- -- 39
2019-09-19 13:00:00 25.6 8 Sur 16 Sur 0 -- -- 46
2019-09-19 12:00:00 23.6 8 Sur 15 Sur 0 -- -- 49
2019-09-19 11:00:00 21.7 8 Sudeste 19 Sudeste 0 -- -- 64
2019-09-19 10:00:00 18.5 14 Sudeste 22 Sudeste 0 -- -- 70
2019-09-19 09:00:00 13.8 3 Este 7 Sudeste 0 -- -- 87
2019-09-19 08:00:00 12 0 Calma 7 Este 0 -- -- 91
2019-09-19 07:00:00 12.2 0 Calma 4 Este 0 -- -- 91
2019-09-19 06:00:00 13 0 Calma 5 Sur 0 -- -- 89
2019-09-19 05:00:00 14 0 Calma 7 Sudeste 0 -- -- 86
2019-09-19 04:00:00 15 2 Noroeste 16 Sudeste 0 -- -- 81
2019-09-19 03:00:00 14.7 8 Sudeste 13 Sudeste 0 -- -- 79
2019-09-19 02:00:00 12.9 4 Sur 6 Sudeste 0 -- -- 85
2019-09-19 01:00:00 13.2 0 Calma 4 Sur 0 -- -- 82
2019-09-19 00:00:00 13.2 0 Calma 3 Sudoeste 0 -- -- 82
2019-09-18 23:00:00 13.6 0 Calma 3 Sur 0 -- -- 82
2019-09-18 22:00:00 14.8 3 Sudoeste 3 Sudoeste 0 -- -- 76
2019-09-18 21:00:00 17.6 2 Sudoeste 7 Oeste 0 -- -- 65
2019-09-18 20:00:00 22.6 5 Oeste 13 Oeste 0 -- -- 46
2019-09-18 19:00:00 24.6 8 Oeste 20 Noroeste 0 -- -- 40
2019-09-18 18:00:00 27 8 Noroeste 21 Sudoeste 0 -- -- 37
2019-09-18 17:00:00 27 6 Oeste 21 Sudoeste 0 -- -- 36
2019-09-18 16:00:00 26.3 7 Noroeste 21 Sur 0 -- -- 38
2019-09-18 15:00:00 26.4 7 Oeste 21 Noroeste 0 -- -- 40
2019-09-18 14:00:00 26 6 Noroeste 17 Noroeste 0 -- -- 40
2019-09-18 13:00:00 24.3 6 Noroeste 13 Oeste 0 -- -- 42
2019-09-18 12:00:00 21.3 3 Noroeste 8 Norte 0 -- -- 49
2019-09-18 11:00:00 19.5 2 Noroeste 5 Norte 0 -- -- 63
2019-09-18 10:00:00 15.7 0 Calma 6 Sudeste 0 -- -- 78
2019-09-18 09:00:00 12.1 0 Calma 5 Noroeste 0 -- -- 91
2019-09-18 08:00:00 10.3 0 Calma 4 Oeste 0 -- -- 91
2019-09-18 07:00:00 10.8 2 Oeste 6 Noroeste 0 -- -- 90
2019-09-18 06:00:00 11.5 4 Sur 6 Sur 0 -- -- 91
2019-09-18 05:00:00 10.8 2 Noroeste 8 Sudeste 0 -- -- 91
2019-09-18 04:00:00 10.9 0 Calma 6 Este 0 -- -- 86
2019-09-18 03:00:00 11.8 6 Oeste 9 Oeste 0 -- -- 85
2019-09-18 02:00:00 11.5 4 Sur 6 Sur 0 -- -- 90
2019-09-18 01:00:00 12.5 3 Sur 12 Noroeste 0 -- -- 85
2019-09-18 00:00:00 14.6 7 Sudoeste 18 Noroeste 0 -- -- 75
2019-09-17 23:00:00 16.9 3 Noroeste 27 Sudeste 0 -- -- 65
2019-09-17 22:00:00 17.3 11 Sudeste 24 Sudeste 0 -- -- 63
2019-09-17 21:00:00 16.4 8 Sudeste 30 Sur 0.2 -- -- 72
2019-09-15 18:00:00 -- -- -- -- -- -- -- -- --
2019-09-15 17:00:00 -- -- -- -- -- -- -- -- --
2019-09-15 16:00:00 22.1 23 Sur 43 Sudeste 0 -- -- 65
2019-09-15 15:00:00 22.9 26 Sudeste 43 Sudeste 0 -- -- 66
2019-09-15 14:00:00 21.4 19 Sudeste 32 Sudeste 0 -- -- 71
2019-09-15 13:00:00 19.2 9 Sudeste 24 Sudeste 0 -- -- 83
2019-09-15 12:00:00 19.2 14 Este 25 Este 0 -- -- 83
2019-09-15 11:00:00 17.9 10 Sudeste 25 Sudeste 1 -- -- 88
2019-09-15 10:00:00 16.1 8 Sudeste 18 Este 0.2 -- -- 90
2019-09-15 09:00:00 15.8 4 Sudeste 6 Sudeste 0 -- -- 90
2019-09-15 08:00:00 16.1 4 Sur 14 Sudeste 0 -- -- 84
2019-09-15 07:00:00 16 9 Sudeste 28 Sudeste 0 -- -- 81
2019-09-15 06:00:00 15.8 13 Sudeste 26 Sudeste 0 -- -- 81
2019-09-15 05:00:00 15.6 12 Sudeste 27 Sudeste 0 -- -- 80
2019-09-15 04:00:00 16.1 17 Sudeste 28 Sudeste 0 -- -- 79
2019-09-15 03:00:00 16.3 15 Sudeste 31 Sudeste 0 -- -- 78
2019-09-15 02:00:00 16.5 12 Sudeste 29 Sudeste 0 -- -- 79
2019-09-15 01:00:00 17.4 14 Sudeste 33 Sudeste 0 -- -- 75
2019-09-15 00:00:00 18.2 17 Sudeste 30 Sudeste 0 -- -- 70
2019-09-14 23:00:00 17.6 11 Sudeste 17 Sudeste 0 -- -- 74
2019-09-14 22:00:00 17.8 15 Sudeste 24 Sudeste 0 -- -- 74
2019-09-14 21:00:00 16.2 6 Sudeste 14 Este 0 -- -- 81
2019-09-14 20:00:00 18.3 8 Sudeste 14 Sudeste 0 -- -- 71
2019-09-14 19:00:00 19.2 9 Norte 22 Nordeste 0.2 -- -- 70
2019-09-14 18:00:00 18.7 5 Norte 21 Noroeste 0 -- -- 74
2019-09-14 17:00:00 19 9 Noroeste 22 Noroeste 0 -- -- 75
2019-09-14 16:00:00 18.6 6 Sudeste 24 Este 0 -- -- 73
2019-09-14 15:00:00 19.9 12 Este 22 Este 0 -- -- 70
2019-09-14 14:00:00 15.1 4 Nordeste 23 Sudoeste 1.2 -- -- 91
2019-09-14 13:00:00 15.5 17 Sudoeste 33 Sudoeste 0 -- -- 79
2019-09-14 12:00:00 21.9 9 Sudeste 33 Este 0 -- -- 51
2019-09-14 11:00:00 20.2 11 Sudeste 33 Sudeste 0 -- -- 56
2019-09-14 10:00:00 17.1 24 Este 49 Sudeste 0 -- -- 65
2019-09-14 09:00:00 15.1 28 Sudeste 50 Este 0 -- -- 67
2019-09-14 08:00:00 14.7 27 Sudeste 45 Sudeste 0 -- -- 69
2019-09-14 07:00:00 14.1 14 Sudeste 26 Sudeste 0 -- -- 76
2019-09-14 06:00:00 -- -- -- -- -- -- -- -- --
2019-09-14 05:00:00 -- -- -- -- -- -- -- -- --
2019-09-14 04:00:00 14.8 14 Sudeste 26 Sudeste 0 -- -- 80
2019-09-14 03:00:00 14.4 10 Sudeste 22 Sudeste 0 -- -- 81
2019-09-14 02:00:00 15.3 10 Sudeste 25 Sudeste 0 -- -- 73
2019-09-14 01:00:00 15.6 23 Sudeste 41 Sur 0 -- -- 71
2019-09-14 00:00:00 15.7 28 Sudeste 44 Sudeste 0 -- -- 83